• Join FlightAware (Why Join?)
  • Login
  • US Flag 
10:37PM EST


 

Airport Tracker/Info


-or-


 

Live Flight TrackerFlight Track Log ✈ N163EG ✈ 22-Apr-2013 ✈ KPDK - KPDK

Flight Track Log - Related Links

Times and Time Zones

All times are in EDT time to prevent confusion due to time zone crossing. See the N163EG flight status page for this flight to view local times or setup timezone preferences in your user account.

Time Position Orientation Groundspeed Altitude Reporting Facility
EDT Latitude Longitude Course Direction KTS MPH feet Rate Location/Type
01:18PM 33.9530 -84.2600 23° Northeast 4,900  Level FlightAware
01:18PM 33.9620 -84.2580 10° North 5,200 2,520 Climbing FlightAware
01:18PM 33.9810 -84.2690 334° Northwest 6,000 2,580 Climbing FlightAware
01:18PM 33.9890 -84.2780 317° Northwest 6,300 2,580 Climbing FlightAware
01:19PM 34.0150 -84.3060 318° Northwest 7,700 2,580 Climbing FlightAware
01:19PM 34.0390 -84.3310 319° Northwest 9,000 2,580 Climbing FlightAware
01:20PM 34.0820 -84.3790 317° Northwest 10,900 2,520 Climbing FlightAware
01:21PM 34.1270 -84.4250 320° Northwest 12,200 2,520 Climbing FlightAware
01:21PM 34.1840 -84.4800 321° Northwest 14,100 2,700 Climbing FlightAware
01:22PM 34.2492 -84.5381 324° Northwest 15,900 2,820 Climbing FlightAware ADS-B
01:23PM 34.3001 -84.5548 345° North 360 414 17,500 2,880 Climbing FlightAware ADS-B
01:23PM 34.3554 -84.5707 347° North 372 428 18,900 2,460 Climbing FlightAware ADS-B
01:24PM 34.4096 -84.5866 346° North 367 422 20,100 1,200 Climbing FlightAware ADS-B
01:24PM 34.4674 -84.6030 347° North 430 495 20,200 1,560 Climbing FlightAware ADS-B
01:25PM 34.5298 -84.6210 347° North 404 465 21,800 3,180 Climbing FlightAware ADS-B
01:25PM 34.5879 -84.6374 347° North 412 474 23,600 1,800 Climbing FlightAware ADS-B
01:26PM 34.6474 -84.6537 347° North 411 473 23,700 960 Climbing FlightAware ADS-B
01:26PM 34.7108 -84.6712 347° North 469 540 24,600 2,580 Climbing FlightAware ADS-B
01:27PM 34.7716 -84.6881 347° North 405 466 26,400 2,640 Climbing FlightAware ADS-B
01:27PM 34.8441 -84.7076 348° North 419 482 27,600 1,740 Climbing FlightAware ADS-B
01:28PM 34.9122 -84.7254 348° North 464 534 28,500 1,740 Climbing FlightAware ADS-B
01:29PM 34.9746 -84.7420 348° North 439 505 29,500 900 Climbing FlightAware ADS-B
01:29PM 35.0429 -84.7602 348° North 461 531 29,500 1,620 Level FlightAware ADS-B
01:30PM 35.1281 -84.7827 348° North 470 541 31,500 3,000 Climbing FlightAware ADS-B
01:30PM 35.1867 -84.7979 348° North 424 488 33,100 1,920 Climbing FlightAware ADS-B
01:31PM 35.2450 -84.8123 349° North 412 474 33,500 360 Climbing FlightAware ADS-B
01:31PM 35.3117 -84.8293 348° North 453 521 33,500  Level FlightAware ADS-B
01:32PM 35.3745 -84.8458 348° North 448 516 33,500  Level FlightAware ADS-B
01:32PM 35.4410 -84.8639 347° North 480 552 33,500  Level FlightAware ADS-B
01:33PM 35.5052 -84.9015 335° Northwest 485 558 33,500 -720 Level FlightAware ADS-B
01:33PM 35.5326 -84.9677 297° West 427 491 32,800 -1,800 Descending FlightAware ADS-B
01:34PM 35.5182 -85.0379 256° West 438 504 31,700 -1,980 Descending FlightAware ADS-B
01:34PM 35.4647 -85.0776 211° Southwest 425 489 30,700 -1,740 Descending FlightAware ADS-B
01:35PM 35.4026 -85.0703 175° South 449 517 29,900 -1,920 Descending FlightAware ADS-B
01:35PM 35.3335 -85.0588 172° South 475 547 28,800 -1,980 Descending FlightAware ADS-B
01:36PM 35.2610 -85.0597 181° South 443 510 27,800 -840 Descending FlightAware ADS-B
01:37PM 35.2053 -85.0800 197° South 407 468 27,900 360 Climbing FlightAware ADS-B
01:37PM 35.1770 -85.1368 239° Southwest 390 449 28,200 -180 Climbing FlightAware ADS-B
01:38PM 35.2045 -85.2113 294° West 420 483 27,700 -720 Descending FlightAware ADS-B
01:38PM 35.2660 -85.2284 347° North 510 587 27,400 360 Descending FlightAware ADS-B
01:39PM 35.3206 -85.1918 29° Northeast 440 506 28,100 540 Climbing FlightAware ADS-B
01:39PM 35.3478 -85.1200 65° Northeast 473 544 28,000 60 Descending FlightAware ADS-B
01:40PM 35.3242 -85.0442 111° Southeast 466 536 28,200 360 Climbing FlightAware ADS-B
01:40PM 35.2691 -85.0097 153° Southeast 440 506 28,400 480 Climbing FlightAware ADS-B
01:41PM 35.2090 -85.0293 195° South 416 479 28,700  Climbing FlightAware ADS-B
01:41PM 35.1515 -85.0648 207° Southwest 426 490 28,400  Descending FlightAware ADS-B
01:42PM 35.0872 -85.0912 199° South 477 549 28,700 60 Climbing FlightAware ADS-B
01:42PM 35.0239 -85.1194 200° South 475 547 28,500 -1,560 Descending FlightAware ADS-B
01:43PM 34.9602 -85.1433 197° South 458 527 27,100 -3,360 Descending FlightAware ADS-B
01:43PM 34.8996 -85.1662 197° South 454 522 25,100 -3,660 Descending FlightAware ADS-B
01:44PM 34.8375 -85.1902 198° South 425 489 23,400 -3,120 Descending FlightAware ADS-B
01:44PM 34.7769 -85.2140 198° South 439 505 21,900 -2,820 Descending FlightAware ADS-B
01:45PM 34.7184 -85.2380 199° South 427 491 20,500 -3,000 Descending FlightAware ADS-B
01:45PM 34.6620 -85.2581 196° South 400 460 18,900 -2,760 Descending FlightAware ADS-B
01:46PM 34.6036 -85.2463 171° South 404 465 17,700 -1,980 Descending FlightAware ADS-B
01:46PM 34.5471 -85.2290 166° South 437 503 16,900 -2,280 Descending FlightAware ADS-B
01:47PM 34.4830 -85.2038 162° South 379 436 15,200 -1,200 Descending FlightAware ADS-B
01:53PM 34.1150 -84.7650 135° Southeast 6,900 -1,140 Descending FlightAware
01:53PM 34.0960 -84.7280 122° Southeast 6,500 -720 Descending FlightAware
01:54PM 34.0560 -84.6540 123° Southeast 5,500 -720 Descending FlightAware
01:56PM 33.9930 -84.5370 123° Southeast 4,000 -660 Descending FlightAware
01:56PM 33.9730 -84.4990 122° Southeast 4,000 -420 Level FlightAware
01:57PM 33.9530 -84.4620 123° Southeast 3,900 -540 Descending FlightAware
01:57PM 33.9360 -84.4300 123° Southeast 3,700 -660 Descending FlightAware
01:58PM 33.9180 -84.3960 123° Southeast 3,500 -660 Descending FlightAware
01:58PM 33.8919 -84.3617 123° Southeast 256 295 3,000 -660 Descending Atlanta Center
01:59PM 33.8333 -84.3333 158° South 187 215 2,400 -540 Descending Atlanta TRACON
02:01PM 33.8667 -84.3000 124° Southeast  Level FlightAware Approximate
02:08PM 33.8756 -84.3020 124° Southeast  Level Estimated
02:09PM 33.8756 -84.3020 124° Southeast  Level Estimated